GMMH

Details ICAO GMMH (VIL)
Name DAKHLA
Region Morocco
Timezone Africa/El_Aaiun (UTC+0.0)
Plans Departing 38
Arriving 47
Stats Elevation 36 ft / 11 m (AMSL)
Location 23.718294° -15.931993°
Runways 1
Magnetic Variation 5.216° W
Sunrise 2018-05-27 06:18:55 UTC / 2018-05-27 06:18:55 Local
Sunset 2018-05-27 19:45:44 UTC / 2018-05-27 19:45:44 Local
Advertisement - Login to hide

Runways

ID Width Length Bearing (true) Bearing (mag) Surface Threshold Offset Overrun Length
03 148 ft / 45 m 9,886 ft / 3,013 m 22.66° 27.88° Asphalt 0 ft / 0 m 323 ft / 98 m
21 148 ft / 45 m 9,886 ft / 3,013 m 202.67° 207.89° Asphalt 0 ft / 0 m 377 ft / 115 m

Map

Weather


0- 5 10 15 20 25 30 35+ Temperature / ° C

Clouds and Precipitation
Forecast for 2018-05-27 06:00 UTC. Updated 3 hours ago

Ground ~20,000 ft ~40,000 ft Winds

METAR

GMMH 270800Z 07020KT 8000 SCT010 18/15 Q1018 NOSIG

TAF

TAF GMMH 270500Z 2706/2812 05019KT 8000 SCT006= TAF GMTA 270500Z 2706/2812 36010KT 9999 SCT030

Frequencies

Tower 118.10 MHz TWR
Warning: Do not use this data for real-world aviation or navigation. No guarantee of current accuracy is given.